sensor_id;sensor_type;location;lat;lon;timestamp;pressure;altitude;pressure_sealevel;temperature
79148;BMP280;68562;51.600;6.524;2024-03-08T00:00:00;1017.3;;;9.9
79148;BMP280;68562;51.600;6.524;2024-03-08T00:05:00;1017.3;;;9.9
79148;BMP280;68562;51.600;6.524;2024-03-08T00:10:00;1017.2;;;9.8
79148;BMP280;68562;51.600;6.524;2024-03-08T00:15:00;1017.2;;;9.8
79148;BMP280;68562;51.600;6.524;2024-03-08T00:20:00;1017.2;;;9.7
79148;BMP280;68562;51.600;6.524;2024-03-08T00:25:00;1017.1;;;9.7
79148;BMP280;68562;51.600;6.524;2024-03-08T00:30:00;1017.1;;;9.6
79148;BMP280;68562;51.600;6.524;2024-03-08T00:35:00;1017.1;;;9.6
79148;BMP280;68562;51.600;6.524;2024-03-08T00:40:00;1017.1;;;9.6
79148;BMP280;68562;51.600;6.524;2024-03-08T00:45:00;1017.0;;;9.5
79148;BMP280;68562;51.600;6.524;2024-03-08T00:50:00;1017.0;;;9.5
79148;BMP280;68562;51.600;6.524;2024-03-08T00:55:00;1016.9;;;9.5
79148;BMP280;68562;51.600;6.524;2024-03-08T01:00:02;1016.9;;;9.4
79148;BMP280;68562;51.600;6.524;2024-03-08T01:05:00;1016.9;;;9.4
79148;BMP280;68562;51.600;6.524;2024-03-08T01:10:00;1016.8;;;9.3
79148;BMP280;68562;51.600;6.524;2024-03-08T01:15:01;1016.8;;;9.3
79148;BMP280;68562;51.600;6.524;2024-03-08T01:20:00;1016.7;;;9.3
79148;BMP280;68562;51.600;6.524;2024-03-08T01:25:00;1016.6;;;9.3
79148;BMP280;68562;51.600;6.524;2024-03-08T01:30:01;1016.6;;;9.2
79148;BMP280;68562;51.600;6.524;2024-03-08T01:35:00;1016.5;;;9.2
79148;BMP280;68562;51.600;6.524;2024-03-08T01:40:00;1016.5;;;9.2
79148;BMP280;68562;51.600;6.524;2024-03-08T01:45:00;1016.5;;;9.1
79148;BMP280;68562;51.600;6.524;2024-03-08T01:50:01;1016.4;;;9.1
79148;BMP280;68562;51.600;6.524;2024-03-08T01:55:01;1016.4;;;9.0
79148;BMP280;68562;51.600;6.524;2024-03-08T02:00:01;1016.3;;;8.9
79148;BMP280;68562;51.600;6.524;2024-03-08T02:05:00;1016.3;;;8.9
79148;BMP280;68562;51.600;6.524;2024-03-08T02:10:00;1016.2;;;8.9
79148;BMP280;68562;51.600;6.524;2024-03-08T02:15:00;1016.2;;;8.8
79148;BMP280;68562;51.600;6.524;2024-03-08T02:20:00;1016.2;;;8.8
79148;BMP280;68562;51.600;6.524;2024-03-08T02:25:00;1016.1;;;8.7
79148;BMP280;68562;51.600;6.524;2024-03-08T02:30:00;1016.1;;;8.7
79148;BMP280;68562;51.600;6.524;2024-03-08T02:35:00;1016.0;;;8.6
79148;BMP280;68562;51.600;6.524;2024-03-08T02:40:00;1016.0;;;8.6
79148;BMP280;68562;51.600;6.524;2024-03-08T02:45:00;1015.9;;;8.5
79148;BMP280;68562;51.600;6.524;2024-03-08T02:50:00;1015.9;;;8.5
79148;BMP280;68562;51.600;6.524;2024-03-08T02:55:00;1015.8;;;8.5
79148;BMP280;68562;51.600;6.524;2024-03-08T03:00:00;1015.8;;;8.5
79148;BMP280;68562;51.600;6.524;2024-03-08T03:05:00;1015.8;;;8.4
79148;BMP280;68562;51.600;6.524;2024-03-08T03:10:01;1015.7;;;8.4
79148;BMP280;68562;51.600;6.524;2024-03-08T03:15:00;1015.6;;;8.3
79148;BMP280;68562;51.600;6.524;2024-03-08T03:20:00;1015.5;;;8.4
79148;BMP280;68562;51.600;6.524;2024-03-08T03:25:00;1015.6;;;8.3
79148;BMP280;68562;51.600;6.524;2024-03-08T03:30:00;1015.5;;;8.3
79148;BMP280;68562;51.600;6.524;2024-03-08T03:35:00;1015.5;;;8.2
79148;BMP280;68562;51.600;6.524;2024-03-08T03:40:00;1015.5;;;8.2
79148;BMP280;68562;51.600;6.524;2024-03-08T03:45:00;1015.6;;;8.1
79148;BMP280;68562;51.600;6.524;2024-03-08T03:50:00;1015.5;;;8.1
79148;BMP280;68562;51.600;6.524;2024-03-08T03:55:00;1015.4;;;8.1
79148;BMP280;68562;51.600;6.524;2024-03-08T04:00:00;1015.5;;;8.1
79148;BMP280;68562;51.600;6.524;2024-03-08T04:05:00;1015.5;;;8.0
79148;BMP280;68562;51.600;6.524;2024-03-08T04:10:02;1015.4;;;8.0
79148;BMP280;68562;51.600;6.524;2024-03-08T04:15:00;1015.3;;;8.0
79148;BMP280;68562;51.600;6.524;2024-03-08T04:20:00;1015.3;;;8.0
79148;BMP280;68562;51.600;6.524;2024-03-08T04:25:00;1015.2;;;7.9
79148;BMP280;68562;51.600;6.524;2024-03-08T04:30:00;1015.1;;;7.9
79148;BMP280;68562;51.600;6.524;2024-03-08T04:35:00;1015.2;;;7.8
79148;BMP280;68562;51.600;6.524;2024-03-08T04:40:00;1015.2;;;7.8
79148;BMP280;68562;51.600;6.524;2024-03-08T04:45:00;1015.1;;;7.8
79148;BMP280;68562;51.600;6.524;2024-03-08T04:50:00;1015.0;;;7.7
79148;BMP280;68562;51.600;6.524;2024-03-08T04:55:01;1015.0;;;7.7
79148;BMP280;68562;51.600;6.524;2024-03-08T05:00:00;1015.0;;;7.7
79148;BMP280;68562;51.600;6.524;2024-03-08T05:05:00;1015.0;;;7.7
79148;BMP280;68562;51.600;6.524;2024-03-08T05:10:00;1015.0;;;7.6
79148;BMP280;68562;51.600;6.524;2024-03-08T05:15:00;1014.9;;;7.6
79148;BMP280;68562;51.600;6.524;2024-03-08T05:20:00;1014.9;;;7.6
79148;BMP280;68562;51.600;6.524;2024-03-08T05:25:00;1014.8;;;7.6
79148;BMP280;68562;51.600;6.524;2024-03-08T05:30:00;1014.8;;;7.5
79148;BMP280;68562;51.600;6.524;2024-03-08T05:35:00;1014.8;;;7.5
79148;BMP280;68562;51.600;6.524;2024-03-08T05:40:00;1014.7;;;7.4
79148;BMP280;68562;51.600;6.524;2024-03-08T05:45:00;1014.7;;;7.5
79148;BMP280;68562;51.600;6.524;2024-03-08T05:50:00;1014.7;;;7.4
79148;BMP280;68562;51.600;6.524;2024-03-08T05:55:00;1014.7;;;7.4
79148;BMP280;68562;51.600;6.524;2024-03-08T06:00:00;1014.6;;;7.3
79148;BMP280;68562;51.600;6.524;2024-03-08T06:05:00;1014.6;;;7.4
79148;BMP280;68562;51.600;6.524;2024-03-08T06:10:00;1014.6;;;7.3
79148;BMP280;68562;51.600;6.524;2024-03-08T06:15:00;1014.6;;;7.3
79148;BMP280;68562;51.600;6.524;2024-03-08T06:20:00;1014.5;;;7.3
79148;BMP280;68562;51.600;6.524;2024-03-08T06:25:00;1014.5;;;7.4
79148;BMP280;68562;51.600;6.524;2024-03-08T06:30:00;1014.5;;;7.4
79148;BMP280;68562;51.600;6.524;2024-03-08T06:35:00;1014.5;;;7.5
79148;BMP280;68562;51.600;6.524;2024-03-08T06:40:01;1014.5;;;7.6
79148;BMP280;68562;51.600;6.524;2024-03-08T06:45:00;1014.5;;;7.8
79148;BMP280;68562;51.600;6.524;2024-03-08T06:50:00;1014.4;;;8.0
79148;BMP280;68562;51.600;6.524;2024-03-08T06:55:00;1014.4;;;8.3
79148;BMP280;68562;51.600;6.524;2024-03-08T07:00:00;1014.4;;;8.7
79148;BMP280;68562;51.600;6.524;2024-03-08T07:05:00;1014.4;;;9.1
79148;BMP280;68562;51.600;6.524;2024-03-08T07:10:00;1014.4;;;9.6
79148;BMP280;68562;51.600;6.524;2024-03-08T07:15:00;1014.4;;;9.9
79148;BMP280;68562;51.600;6.524;2024-03-08T07:20:00;1014.4;;;10.4
79148;BMP280;68562;51.600;6.524;2024-03-08T07:25:00;1014.4;;;10.9
79148;BMP280;68562;51.600;6.524;2024-03-08T07:30:00;1014.4;;;11.4
79148;BMP280;68562;51.600;6.524;2024-03-08T07:35:00;1014.3;;;11.8
79148;BMP280;68562;51.600;6.524;2024-03-08T07:40:00;1014.2;;;12.1
79148;BMP280;68562;51.600;6.524;2024-03-08T07:45:00;1014.2;;;12.5
79148;BMP280;68562;51.600;6.524;2024-03-08T07:50:00;1014.1;;;12.9
79148;BMP280;68562;51.600;6.524;2024-03-08T07:55:00;1014.1;;;13.4
79148;BMP280;68562;51.600;6.524;2024-03-08T08:00:00;1014.0;;;13.9
79148;BMP280;68562;51.600;6.524;2024-03-08T08:05:00;1014.0;;;14.4
79148;BMP280;68562;51.600;6.524;2024-03-08T08:10:00;1013.9;;;15.0
79148;BMP280;68562;51.600;6.524;2024-03-08T08:15:00;1013.8;;;15.6
79148;BMP280;68562;51.600;6.524;2024-03-08T08:20:00;1013.8;;;16.2
79148;BMP280;68562;51.600;6.524;2024-03-08T08:25:00;1013.7;;;16.7
79148;BMP280;68562;51.600;6.524;2024-03-08T08:30:00;1013.7;;;17.2
79148;BMP280;68562;51.600;6.524;2024-03-08T08:35:00;1013.6;;;17.6
79148;BMP280;68562;51.600;6.524;2024-03-08T08:40:00;1013.5;;;17.8
79148;BMP280;68562;51.600;6.524;2024-03-08T08:45:00;1013.5;;;18.1
79148;BMP280;68562;51.600;6.524;2024-03-08T08:50:00;1013.3;;;18.5
79148;BMP280;68562;51.600;6.524;2024-03-08T08:55:00;1013.3;;;18.9
79148;BMP280;68562;51.600;6.524;2024-03-08T09:00:00;1013.2;;;19.4
79148;BMP280;68562;51.600;6.524;2024-03-08T09:05:00;1013.2;;;19.9
79148;BMP280;68562;51.600;6.524;2024-03-08T09:10:00;1013.0;;;20.4
79148;BMP280;68562;51.600;6.524;2024-03-08T09:15:00;1013.0;;;20.6
79148;BMP280;68562;51.600;6.524;2024-03-08T09:20:00;1012.9;;;20.8
79148;BMP280;68562;51.600;6.524;2024-03-08T09:25:00;1012.8;;;20.5
79148;BMP280;68562;51.600;6.524;2024-03-08T09:30:00;1012.8;;;20.5
79148;BMP280;68562;51.600;6.524;2024-03-08T09:35:01;1012.7;;;20.2
79148;BMP280;68562;51.600;6.524;2024-03-08T09:40:02;1012.6;;;20.3
79148;BMP280;68562;51.600;6.524;2024-03-08T09:45:00;1012.5;;;20.3
79148;BMP280;68562;51.600;6.524;2024-03-08T09:50:00;1012.4;;;20.6
79148;BMP280;68562;51.600;6.524;2024-03-08T09:55:00;1012.3;;;21.0
79148;BMP280;68562;51.600;6.524;2024-03-08T10:00:00;1012.2;;;21.4
79148;BMP280;68562;51.600;6.524;2024-03-08T10:05:01;1012.3;;;21.1
79148;BMP280;68562;51.600;6.524;2024-03-08T10:10:00;1012.2;;;21.1
79148;BMP280;68562;51.600;6.524;2024-03-08T10:15:00;1012.1;;;20.9
79148;BMP280;68562;51.600;6.524;2024-03-08T10:20:00;1012.1;;;20.9
79148;BMP280;68562;51.600;6.524;2024-03-08T10:25:00;1012.0;;;20.7
79148;BMP280;68562;51.600;6.524;2024-03-08T10:30:00;1011.9;;;20.8
79148;BMP280;68562;51.600;6.524;2024-03-08T10:35:00;1011.8;;;21.0
79148;BMP280;68562;51.600;6.524;2024-03-08T10:40:02;1011.7;;;21.4
79148;BMP280;68562;51.600;6.524;2024-03-08T10:45:06;1011.6;;;21.8
79148;BMP280;68562;51.600;6.524;2024-03-08T10:50:08;1011.6;;;21.9
79148;BMP280;68562;51.600;6.524;2024-03-08T10:55:01;1011.6;;;22.2
79148;BMP280;68562;51.600;6.524;2024-03-08T11:00:01;1011.5;;;22.4
79148;BMP280;68562;51.600;6.524;2024-03-08T11:05:01;1011.3;;;22.4
79148;BMP280;68562;51.600;6.524;2024-03-08T11:10:02;1011.3;;;22.7
79148;BMP280;68562;51.600;6.524;2024-03-08T11:15:01;1011.3;;;22.8
79148;BMP280;68562;51.600;6.524;2024-03-08T11:20:00;1011.2;;;23.1
79148;BMP280;68562;51.600;6.524;2024-03-08T11:25:02;1011.1;;;23.0
79148;BMP280;68562;51.600;6.524;2024-03-08T11:30:01;1011.0;;;23.2
79148;BMP280;68562;51.600;6.524;2024-03-08T11:35:00;1010.9;;;23.1
79148;BMP280;68562;51.600;6.524;2024-03-08T11:40:00;1010.8;;;23.1
79148;BMP280;68562;51.600;6.524;2024-03-08T11:45:00;1010.8;;;23.1
79148;BMP280;68562;51.600;6.524;2024-03-08T11:50:00;1010.8;;;23.0
79148;BMP280;68562;51.600;6.524;2024-03-08T11:55:02;1010.7;;;22.7
79148;BMP280;68562;51.600;6.524;2024-03-08T12:00:00;1010.5;;;23.0
79148;BMP280;68562;51.600;6.524;2024-03-08T12:05:01;1010.6;;;23.4
79148;BMP280;68562;51.600;6.524;2024-03-08T12:15:00;1010.3;;;24.2
79148;BMP280;68562;51.600;6.524;2024-03-08T12:20:11;1010.2;;;24.8
79148;BMP280;68562;51.600;6.524;2024-03-08T12:25:04;1010.1;;;25.0
79148;BMP280;68562;51.600;6.524;2024-03-08T12:35:00;1010.0;;;25.0
79148;BMP280;68562;51.600;6.524;2024-03-08T12:40:00;1009.8;;;24.9
79148;BMP280;68562;51.600;6.524;2024-03-08T12:45:00;1009.7;;;25.2
79148;BMP280;68562;51.600;6.524;2024-03-08T12:50:00;1009.6;;;25.4
79148;BMP280;68562;51.600;6.524;2024-03-08T12:55:00;1009.6;;;25.4
79148;BMP280;68562;51.600;6.524;2024-03-08T13:00:00;1009.6;;;24.9
79148;BMP280;68562;51.600;6.524;2024-03-08T13:05:00;1009.4;;;25.0
79148;BMP280;68562;51.600;6.524;2024-03-08T13:10:00;1009.2;;;25.1
79148;BMP280;68562;51.600;6.524;2024-03-08T13:15:00;1009.3;;;25.3
79148;BMP280;68562;51.600;6.524;2024-03-08T13:20:00;1009.2;;;25.4
79148;BMP280;68562;51.600;6.524;2024-03-08T13:25:00;1009.1;;;25.0
79148;BMP280;68562;51.600;6.524;2024-03-08T13:30:00;1009.1;;;25.0
79148;BMP280;68562;51.600;6.524;2024-03-08T13:35:00;1009.0;;;25.1
79148;BMP280;68562;51.600;6.524;2024-03-08T13:40:00;1008.9;;;25.4
79148;BMP280;68562;51.600;6.524;2024-03-08T13:45:00;1008.8;;;25.7
79148;BMP280;68562;51.600;6.524;2024-03-08T13:50:00;1008.6;;;25.6
79148;BMP280;68562;51.600;6.524;2024-03-08T13:55:00;1008.6;;;25.8
79148;BMP280;68562;51.600;6.524;2024-03-08T14:00:00;1008.4;;;26.1
79148;BMP280;68562;51.600;6.524;2024-03-08T14:05:00;1008.3;;;26.7
79148;BMP280;68562;51.600;6.524;2024-03-08T14:10:00;1008.2;;;27.3
79148;BMP280;68562;51.600;6.524;2024-03-08T14:15:00;1008.1;;;27.9
79148;BMP280;68562;51.600;6.524;2024-03-08T14:20:00;1008.0;;;28.4
79148;BMP280;68562;51.600;6.524;2024-03-08T14:25:00;1007.9;;;28.8
79148;BMP280;68562;51.600;6.524;2024-03-08T14:30:00;1007.8;;;29.3
79148;BMP280;68562;51.600;6.524;2024-03-08T14:35:00;1007.8;;;29.8
79148;BMP280;68562;51.600;6.524;2024-03-08T14:40:00;1007.7;;;30.0
79148;BMP280;68562;51.600;6.524;2024-03-08T14:45:00;1007.6;;;30.3
79148;BMP280;68562;51.600;6.524;2024-03-08T14:50:00;1007.4;;;30.5
79148;BMP280;68562;51.600;6.524;2024-03-08T14:55:00;1007.5;;;30.4
79148;BMP280;68562;51.600;6.524;2024-03-08T15:00:00;1007.4;;;30.2
79148;BMP280;68562;51.600;6.524;2024-03-08T15:05:00;1007.2;;;29.9
79148;BMP280;68562;51.600;6.524;2024-03-08T15:10:00;1007.3;;;29.7
79148;BMP280;68562;51.600;6.524;2024-03-08T15:15:00;1007.2;;;29.6
79148;BMP280;68562;51.600;6.524;2024-03-08T15:20:00;1007.1;;;29.3
79148;BMP280;68562;51.600;6.524;2024-03-08T15:25:00;1007.1;;;29.0
79148;BMP280;68562;51.600;6.524;2024-03-08T15:30:00;1007.0;;;28.7
79148;BMP280;68562;51.600;6.524;2024-03-08T15:35:00;1007.0;;;28.5
79148;BMP280;68562;51.600;6.524;2024-03-08T15:40:00;1006.9;;;28.1
79148;BMP280;68562;51.600;6.524;2024-03-08T15:45:00;1006.8;;;27.8
79148;BMP280;68562;51.600;6.524;2024-03-08T15:50:00;1006.8;;;27.4
79148;BMP280;68562;51.600;6.524;2024-03-08T15:55:00;1006.8;;;27.0
79148;BMP280;68562;51.600;6.524;2024-03-08T16:00:00;1006.8;;;26.6
79148;BMP280;68562;51.600;6.524;2024-03-08T16:05:00;1006.8;;;26.2
79148;BMP280;68562;51.600;6.524;2024-03-08T16:10:00;1006.8;;;25.8
79148;BMP280;68562;51.600;6.524;2024-03-08T16:15:00;1006.8;;;25.4
79148;BMP280;68562;51.600;6.524;2024-03-08T16:20:00;1006.7;;;24.9
79148;BMP280;68562;51.600;6.524;2024-03-08T16:25:00;1006.7;;;24.5
79148;BMP280;68562;51.600;6.524;2024-03-08T16:30:00;1006.6;;;24.0
79148;BMP280;68562;51.600;6.524;2024-03-08T16:35:00;1006.6;;;23.4
79148;BMP280;68562;51.600;6.524;2024-03-08T16:40:00;1006.5;;;22.8
79148;BMP280;68562;51.600;6.524;2024-03-08T16:45:00;1006.6;;;22.2
79148;BMP280;68562;51.600;6.524;2024-03-08T16:50:00;1006.6;;;21.6
79148;BMP280;68562;51.600;6.524;2024-03-08T16:55:00;1006.6;;;21.1
79148;BMP280;68562;51.600;6.524;2024-03-08T17:00:00;1006.6;;;20.5
79148;BMP280;68562;51.600;6.524;2024-03-08T17:05:00;1006.6;;;19.9
79148;BMP280;68562;51.600;6.524;2024-03-08T17:10:00;1006.6;;;19.3
79148;BMP280;68562;51.600;6.524;2024-03-08T17:15:00;1006.5;;;18.7
79148;BMP280;68562;51.600;6.524;2024-03-08T17:20:00;1006.6;;;18.1
79148;BMP280;68562;51.600;6.524;2024-03-08T17:25:00;1006.6;;;17.6
79148;BMP280;68562;51.600;6.524;2024-03-08T17:30:00;1006.6;;;17.2
79148;BMP280;68562;51.600;6.524;2024-03-08T17:35:00;1006.6;;;16.7
79148;BMP280;68562;51.600;6.524;2024-03-08T17:40:00;1006.6;;;16.4
79148;BMP280;68562;51.600;6.524;2024-03-08T17:45:00;1006.6;;;16.2
79148;BMP280;68562;51.600;6.524;2024-03-08T17:50:00;1006.7;;;15.9
79148;BMP280;68562;51.600;6.524;2024-03-08T17:55:00;1006.7;;;15.7
79148;BMP280;68562;51.600;6.524;2024-03-08T18:00:00;1006.7;;;15.4
79148;BMP280;68562;51.600;6.524;2024-03-08T18:05:00;1006.8;;;15.3
79148;BMP280;68562;51.600;6.524;2024-03-08T18:10:00;1006.8;;;15.1
79148;BMP280;68562;51.600;6.524;2024-03-08T18:15:00;1006.7;;;15.1
79148;BMP280;68562;51.600;6.524;2024-03-08T18:20:00;1006.6;;;14.9
79148;BMP280;68562;51.600;6.524;2024-03-08T18:25:00;1006.7;;;14.8
79148;BMP280;68562;51.600;6.524;2024-03-08T18:30:00;1006.5;;;14.7
79148;BMP280;68562;51.600;6.524;2024-03-08T18:35:00;1006.5;;;14.6
79148;BMP280;68562;51.600;6.524;2024-03-08T18:40:00;1006.5;;;14.4
79148;BMP280;68562;51.600;6.524;2024-03-08T18:45:00;1006.5;;;14.4
79148;BMP280;68562;51.600;6.524;2024-03-08T18:50:01;1006.4;;;14.2
79148;BMP280;68562;51.600;6.524;2024-03-08T18:55:00;1006.4;;;14.1
79148;BMP280;68562;51.600;6.524;2024-03-08T19:00:00;1006.4;;;14.0
79148;BMP280;68562;51.600;6.524;2024-03-08T19:05:00;1006.3;;;14.0
79148;BMP280;68562;51.600;6.524;2024-03-08T19:10:00;1006.3;;;13.8
79148;BMP280;68562;51.600;6.524;2024-03-08T19:15:00;1006.2;;;13.8
79148;BMP280;68562;51.600;6.524;2024-03-08T19:20:00;1006.1;;;13.6
79148;BMP280;68562;51.600;6.524;2024-03-08T19:25:00;1006.1;;;13.6
79148;BMP280;68562;51.600;6.524;2024-03-08T19:30:00;1006.1;;;13.4
79148;BMP280;68562;51.600;6.524;2024-03-08T19:35:00;1006.1;;;13.4
79148;BMP280;68562;51.600;6.524;2024-03-08T19:40:00;1006.0;;;13.2
79148;BMP280;68562;51.600;6.524;2024-03-08T19:45:00;1006.0;;;13.2
79148;BMP280;68562;51.600;6.524;2024-03-08T19:50:00;1005.9;;;13.1
79148;BMP280;68562;51.600;6.524;2024-03-08T19:55:00;1005.9;;;13.1
79148;BMP280;68562;51.600;6.524;2024-03-08T20:00:00;1005.8;;;13.0
79148;BMP280;68562;51.600;6.524;2024-03-08T20:05:00;1005.8;;;12.9
79148;BMP280;68562;51.600;6.524;2024-03-08T20:10:00;1005.8;;;12.8
79148;BMP280;68562;51.600;6.524;2024-03-08T20:15:00;1005.8;;;12.8
79148;BMP280;68562;51.600;6.524;2024-03-08T20:20:01;1005.8;;;12.7
79148;BMP280;68562;51.600;6.524;2024-03-08T20:25:00;1005.7;;;12.7
79148;BMP280;68562;51.600;6.524;2024-03-08T20:30:00;1005.7;;;12.6
79148;BMP280;68562;51.600;6.524;2024-03-08T20:35:00;1005.6;;;12.6
79148;BMP280;68562;51.600;6.524;2024-03-08T20:40:00;1005.6;;;12.6
79148;BMP280;68562;51.600;6.524;2024-03-08T20:45:00;1005.5;;;12.5
79148;BMP280;68562;51.600;6.524;2024-03-08T20:50:00;1005.4;;;12.5
79148;BMP280;68562;51.600;6.524;2024-03-08T20:55:00;1005.4;;;12.5
79148;BMP280;68562;51.600;6.524;2024-03-08T21:00:00;1005.3;;;12.4
79148;BMP280;68562;51.600;6.524;2024-03-08T21:05:00;1005.4;;;12.4
79148;BMP280;68562;51.600;6.524;2024-03-08T21:10:00;1005.3;;;12.4
79148;BMP280;68562;51.600;6.524;2024-03-08T21:15:00;1005.3;;;12.4
79148;BMP280;68562;51.600;6.524;2024-03-08T21:20:00;1005.3;;;12.3
79148;BMP280;68562;51.600;6.524;2024-03-08T21:25:00;1005.3;;;12.3
79148;BMP280;68562;51.600;6.524;2024-03-08T21:30:00;1005.3;;;12.3
79148;BMP280;68562;51.600;6.524;2024-03-08T21:35:00;1005.2;;;12.2
79148;BMP280;68562;51.600;6.524;2024-03-08T21:40:00;1005.2;;;12.2
79148;BMP280;68562;51.600;6.524;2024-03-08T21:45:02;1005.2;;;12.1
79148;BMP280;68562;51.600;6.524;2024-03-08T21:50:00;1005.3;;;12.0
79148;BMP280;68562;51.600;6.524;2024-03-08T21:55:00;1005.3;;;11.9
79148;BMP280;68562;51.600;6.524;2024-03-08T22:00:00;1005.3;;;11.9
79148;BMP280;68562;51.600;6.524;2024-03-08T22:05:00;1005.3;;;11.8
79148;BMP280;68562;51.600;6.524;2024-03-08T22:10:00;1005.3;;;11.8
79148;BMP280;68562;51.600;6.524;2024-03-08T22:15:00;1005.3;;;11.8
79148;BMP280;68562;51.600;6.524;2024-03-08T22:20:00;1005.3;;;11.8
79148;BMP280;68562;51.600;6.524;2024-03-08T22:25:00;1005.2;;;11.7
79148;BMP280;68562;51.600;6.524;2024-03-08T22:30:00;1005.2;;;11.7
79148;BMP280;68562;51.600;6.524;2024-03-08T22:35:00;1005.1;;;11.6
79148;BMP280;68562;51.600;6.524;2024-03-08T22:40:00;1005.2;;;11.6
79148;BMP280;68562;51.600;6.524;2024-03-08T22:45:00;1005.1;;;11.5
79148;BMP280;68562;51.600;6.524;2024-03-08T22:50:00;1005.0;;;11.5
79148;BMP280;68562;51.600;6.524;2024-03-08T22:55:00;1005.0;;;11.4
79148;BMP280;68562;51.600;6.524;2024-03-08T23:00:00;1005.0;;;11.5
79148;BMP280;68562;51.600;6.524;2024-03-08T23:05:00;1005.0;;;11.3
79148;BMP280;68562;51.600;6.524;2024-03-08T23:10:00;1004.9;;;11.4
79148;BMP280;68562;51.600;6.524;2024-03-08T23:15:00;1004.9;;;11.2
79148;BMP280;68562;51.600;6.524;2024-03-08T23:20:00;1004.8;;;11.3
79148;BMP280;68562;51.600;6.524;2024-03-08T23:25:00;1004.8;;;11.2
79148;BMP280;68562;51.600;6.524;2024-03-08T23:30:00;1004.8;;;11.2
79148;BMP280;68562;51.600;6.524;2024-03-08T23:35:00;1004.7;;;11.1
79148;BMP280;68562;51.600;6.524;2024-03-08T23:40:00;1004.6;;;11.1
79148;BMP280;68562;51.600;6.524;2024-03-08T23:45:00;1004.6;;;11.1
79148;BMP280;68562;51.600;6.524;2024-03-08T23:50:00;1004.6;;;11.0
79148;BMP280;68562;51.600;6.524;2024-03-08T23:55:00;1004.7;;;11.0
